VRMM/MLE METAR and TAF weather

Enter ICAO airport designator
Station Type Date Time Source
VRMM METAR 2022/05/24 09:00 UTC NOAA

VRMM 240900Z 25010KT 9999 SCT018TCU BKN270 32/26 Q1009 NOSIG


Station Type Date Time Source
VRMM Decoded METAR 2022/05/24 09:00 UTC NOAA

Male, Maldives (VRMM) 04-12N 073-32E 2M
May 24, 2022 - 05:00 AM EDT / 2022.05.24 0900 UTC
Wind: from the WSW (250 degrees) at 12 MPH (10 KT):0
Visibility: greater than 7 mile(s):0
Sky conditions: mostly cloudy
Weather: Towering cumulus clouds observed
Temperature: 89 F (32 C)
Heat index: 102.9 F (39.4 C):1
Dew Point: 78 F (26 C)
Relative Humidity: 70%
Pressure (altimeter): 29.80 in. Hg (1009 hPa)
ob: VRMM 240900Z 25010KT 9999 SCT018TCU BKN270 32/26 Q1009 NOSIG
cycle: 9

Station Type Date Time Source
VRMM TAF 2022/05/24 12:13 UTC NOAA

TAF VRMM 241100Z 2412/2518 25012KT 9999 FEW018
TEMPO 2412/2418 FEW018CB

Example: see airport list